createdAt,value
2019-04-03T14:02:37.707Z,80.30
2019-04-03T14:05:09.762Z,84.10
2019-04-03T14:07:41.621Z,84.90
2019-04-03T14:10:11.938Z,85.70
2019-04-03T14:12:44.607Z,86.80
2019-04-03T14:15:15.089Z,88.30
2019-04-03T14:17:55.164Z,87.80
2019-04-03T14:20:16.654Z,88.30
2019-04-03T14:22:47.476Z,87.40
2019-04-03T14:25:22.214Z,88.60
2019-04-03T14:27:49.949Z,88.80
2019-04-03T14:30:20.258Z,88.00
2019-04-03T14:32:52.844Z,88.00
2019-04-03T14:35:45.938Z,87.40
2019-04-03T14:37:54.355Z,87.60
2019-04-03T14:40:24.726Z,86.80
2019-04-03T14:42:58.250Z,88.10
2019-04-03T14:45:26.680Z,89.00
2019-04-03T14:47:59.689Z,90.20
2019-04-03T14:50:30.526Z,90.40
2019-04-03T14:53:00.763Z,90.70
2019-04-03T14:55:31.159Z,91.00
2019-04-03T14:58:02.285Z,91.00
2019-04-03T15:00:33.254Z,91.20
2019-04-03T15:03:04.857Z,91.50
2019-04-03T15:05:39.297Z,91.30
2019-04-03T15:08:07.134Z,91.60
2019-04-03T15:10:37.651Z,91.80
2019-04-03T15:13:26.773Z,91.70
2019-04-03T15:16:00.407Z,91.30
2019-04-03T15:18:29.292Z,91.50
2019-04-03T15:20:59.787Z,92.20
2019-04-03T15:23:29.962Z,92.50
2019-04-03T15:26:01.056Z,93.10
2019-04-03T15:28:32.382Z,93.00
2019-04-03T15:31:03.289Z,93.20
2019-04-03T15:33:33.451Z,93.90
2019-04-03T15:36:04.731Z,94.20
2019-04-03T15:38:35.277Z,94.70
2019-04-03T15:41:05.806Z,95.10
2019-04-03T15:43:36.079Z,95.60
2019-04-03T15:46:06.564Z,95.70
2019-04-03T15:48:39.896Z,96.00
2019-04-03T15:51:09.877Z,95.90
2019-04-03T15:53:40.421Z,95.90
2019-04-03T15:56:13.005Z,95.50
2019-04-03T15:58:43.303Z,95.40
2019-04-03T16:01:13.836Z,95.70
2019-04-03T16:03:44.697Z,96.00
2019-04-03T16:06:14.448Z,97.30
2019-04-03T16:08:47.122Z,98.30
2019-04-03T16:11:17.091Z,99.00
2019-04-03T16:13:48.179Z,99.90
2019-04-03T16:16:19.458Z,99.90
2019-04-03T16:18:50.562Z,99.90
2019-04-03T16:21:22.415Z,99.90
2019-04-03T16:23:52.288Z,99.90
2019-04-03T16:26:23.883Z,99.90
2019-04-03T16:28:56.257Z,99.90
2019-04-03T16:31:26.218Z,99.90
2019-04-03T16:33:56.301Z,99.90
2019-04-03T16:36:26.793Z,99.90
2019-04-03T16:39:00.684Z,99.90
2019-04-03T16:41:30.262Z,99.90
2019-04-03T16:44:00.790Z,99.90
2019-04-03T16:46:31.235Z,99.90
2019-04-03T16:49:02.102Z,99.90
2019-04-03T16:51:33.370Z,99.90
2019-04-03T16:54:03.596Z,99.90
2019-04-03T16:56:34.025Z,99.90
2019-04-03T16:59:03.745Z,99.90
2019-04-03T17:01:33.883Z,99.90
2019-04-03T17:04:04.570Z,99.90
2019-04-03T17:06:35.229Z,99.90
2019-04-03T17:09:07.740Z,99.90
2019-04-03T17:11:38.221Z,99.90
2019-04-03T17:14:08.104Z,99.90
2019-04-03T17:16:38.357Z,99.90
2019-04-03T17:19:08.282Z,99.90
2019-04-03T17:21:39.340Z,99.90
2019-04-03T17:24:09.660Z,99.90
2019-04-03T17:26:49.746Z,99.90
2019-04-03T17:29:13.952Z,99.90
2019-04-03T17:31:44.280Z,99.90
2019-04-03T17:34:14.686Z,99.90
2019-04-03T17:36:44.871Z,99.90
2019-04-03T17:39:14.967Z,99.90
2019-04-03T17:41:45.287Z,99.90
2019-04-03T17:44:15.411Z,99.90
2019-04-03T17:46:50.030Z,99.90
2019-04-03T17:49:19.827Z,99.90
2019-04-03T17:51:50.174Z,99.90
2019-04-03T17:54:20.248Z,99.90
2019-04-03T17:56:50.643Z,99.90
2019-04-03T17:59:21.140Z,99.90
2019-04-03T18:01:52.412Z,99.90
2019-04-03T18:04:22.985Z,99.90
2019-04-03T18:06:53.756Z,99.90
2019-04-03T18:09:23.532Z,99.90
2019-04-03T18:12:12.248Z,99.90
2019-04-03T18:14:41.934Z,99.90
2019-04-03T18:17:12.466Z,99.90
2019-04-03T18:19:42.603Z,99.90
2019-04-03T18:22:13.033Z,99.90
2019-04-03T18:24:43.219Z,99.90
2019-04-03T18:27:13.886Z,99.90
2019-04-03T18:29:44.928Z,99.90
2019-04-03T18:32:15.998Z,99.90
2019-04-03T18:34:49.489Z,99.90
2019-04-03T18:37:17.779Z,99.90
2019-04-03T18:39:51.283Z,99.90
2019-04-03T18:42:21.048Z,99.90
2019-04-03T18:44:51.053Z,99.90
2019-04-03T18:47:21.145Z,99.90
2019-04-03T18:49:51.527Z,99.90
2019-04-03T18:52:21.606Z,99.90
2019-04-03T18:54:51.624Z,99.90
2019-04-03T18:57:21.975Z,99.90
2019-04-03T18:59:52.645Z,99.90
2019-04-03T19:02:22.720Z,99.90
2019-04-03T19:05:01.793Z,99.90
2019-04-03T19:07:24.591Z,99.90
2019-04-03T19:10:06.440Z,99.90
2019-04-03T19:12:35.458Z,99.90
2019-04-03T19:14:57.922Z,99.90
2019-04-03T19:17:28.338Z,99.90
2019-04-03T19:20:09.834Z,99.90
2019-04-03T19:22:30.144Z,99.90
2019-04-03T19:25:00.757Z,99.90
2019-04-03T19:27:33.011Z,99.90
2019-04-03T19:30:06.763Z,99.90
2019-04-03T19:32:35.640Z,99.90
2019-04-03T19:35:09.227Z,99.90
2019-04-03T19:37:38.488Z,99.90
2019-04-03T19:40:10.530Z,99.90
2019-04-03T19:42:41.908Z,99.90
2019-04-03T19:45:13.839Z,99.90
2019-04-03T19:47:44.502Z,99.90
2019-04-03T19:50:14.605Z,99.90
2019-04-03T19:52:45.296Z,99.90
2019-04-03T19:55:15.372Z,99.90
2019-04-03T19:57:45.293Z,99.90
